Cromwell, Indiana
Current Conditions -  °F | °C
As of 7:53 PM on Wednesday 22 Oct 2014 (Local Time) from KGSH Reporting Station
Clear Clear  
Wind Chill: 39°   Ceiling: Unl
Heat Index: 42°   Visibility: 10mi
Dew Point: 37°   Wind: 5mph
Humidity: 82%   Direction: 70°ENE
Pressure: 30.29"   Gusts: NA
Location:  41.4°N, 85.62°W
Report Text: KGSH 222353Z AUTO 07004KT 10SM CLR 06/03 A3029 RMK AO2 SLP265 T00560028 10100 20056 56003
Loading
Personal Weather Stations






























Interactive Weather Map
Tropical Storm Tracking
New forecast layout! Learn more

10-Day Weather Forecast

Advertisements
Track Severe Weather on mobile